createdAt,value
2023-05-07T00:01:06.915Z,3.60
2023-05-07T00:03:36.536Z,3.97
2023-05-07T00:06:05.271Z,3.47
2023-05-07T00:08:33.648Z,3.40
2023-05-07T00:11:01.812Z,3.53
2023-05-07T00:13:31.768Z,3.67
2023-05-07T00:15:59.942Z,3.70
2023-05-07T00:18:28.971Z,3.63
2023-05-07T00:20:58.537Z,3.38
2023-05-07T00:23:26.682Z,3.60
2023-05-07T00:25:54.762Z,3.08
2023-05-07T00:28:22.859Z,3.13
2023-05-07T00:30:51.029Z,3.75
2023-05-07T00:33:19.114Z,3.22
2023-05-07T00:35:47.176Z,2.65
2023-05-07T00:38:16.845Z,3.42
2023-05-07T00:40:44.932Z,3.20
2023-05-07T00:43:13.693Z,3.25
2023-05-07T00:45:41.892Z,3.20
2023-05-07T00:48:10.052Z,2.72
2023-05-07T00:50:39.255Z,3.25
2023-05-07T00:53:07.434Z,3.33
2023-05-07T00:55:38.180Z,3.05
2023-05-07T00:58:06.783Z,3.38
2023-05-07T01:00:34.898Z,3.03
2023-05-07T01:03:03.067Z,3.00
2023-05-07T01:05:32.619Z,3.22
2023-05-07T01:08:02.074Z,3.75
2023-05-07T01:10:31.906Z,2.75
2023-05-07T01:13:02.231Z,3.45
2023-05-07T01:15:30.341Z,2.85
2023-05-07T01:17:58.772Z,3.28
2023-05-07T01:20:27.091Z,2.97
2023-05-07T01:22:57.282Z,3.00
2023-05-07T01:25:25.964Z,3.50
2023-05-07T01:27:54.034Z,2.92
2023-05-07T01:30:23.425Z,3.38
2023-05-07T01:32:54.506Z,3.00
2023-05-07T01:35:26.803Z,3.22
2023-05-07T01:37:57.145Z,3.13
2023-05-07T01:40:25.585Z,3.60
2023-05-07T01:42:53.690Z,3.42
2023-05-07T01:45:21.941Z,2.80
2023-05-07T01:47:50.417Z,3.45
2023-05-07T01:50:19.596Z,3.25
2023-05-07T01:52:47.668Z,3.05
2023-05-07T01:55:17.207Z,3.05
2023-05-07T01:57:45.379Z,3.20
2023-05-07T02:00:14.313Z,3.50
2023-05-07T02:02:42.555Z,3.47
2023-05-07T02:05:11.212Z,3.08
2023-05-07T02:07:39.353Z,3.20
2023-05-07T02:10:08.801Z,2.65
2023-05-07T02:12:38.479Z,3.10
2023-05-07T02:15:07.658Z,3.72
2023-05-07T02:17:36.368Z,3.50
2023-05-07T02:20:05.016Z,3.60
2023-05-07T02:22:33.095Z,3.20
2023-05-07T02:25:01.172Z,3.30
2023-05-07T02:27:29.240Z,3.28
2023-05-07T02:29:58.644Z,3.38
2023-05-07T02:32:26.904Z,3.50
2023-05-07T02:34:54.964Z,3.30
2023-05-07T02:37:23.037Z,3.53
2023-05-07T02:39:51.082Z,3.03
2023-05-07T02:42:19.171Z,3.50
2023-05-07T02:44:47.240Z,3.38
2023-05-07T02:47:17.756Z,3.85
2023-05-07T02:49:45.833Z,3.50
2023-05-07T02:52:13.914Z,3.65
2023-05-07T02:54:41.993Z,3.25
2023-05-07T02:57:10.071Z,3.30
2023-05-07T02:59:38.165Z,3.05
2023-05-07T03:02:06.473Z,3.97
2023-05-07T03:04:36.090Z,3.70
2023-05-07T03:07:04.196Z,3.67
2023-05-07T03:09:32.314Z,3.83
2023-05-07T03:12:00.465Z,3.90
2023-05-07T03:14:28.559Z,3.80
2023-05-07T03:16:56.825Z,3.72
2023-05-07T03:19:25.187Z,3.72
2023-05-07T03:21:54.683Z,3.80
2023-05-07T03:24:22.776Z,4.00
2023-05-07T03:26:50.982Z,3.50
2023-05-07T03:29:19.104Z,3.50
2023-05-07T03:31:47.311Z,3.30
2023-05-07T03:34:15.942Z,3.40
2023-05-07T03:36:44.097Z,3.35
2023-05-07T03:39:13.536Z,3.38
2023-05-07T03:41:41.690Z,3.30
2023-05-07T03:44:09.810Z,3.78
2023-05-07T03:46:38.719Z,4.20
2023-05-07T03:49:06.840Z,3.88
2023-05-07T03:51:34.916Z,3.95
2023-05-07T03:54:02.968Z,3.75
2023-05-07T03:56:32.422Z,3.72
2023-05-07T03:59:00.478Z,4.43
2023-05-07T04:01:28.547Z,3.85
2023-05-07T04:03:56.895Z,3.30
2023-05-07T04:06:25.500Z,3.85
2023-05-07T04:08:53.665Z,3.63
2023-05-07T04:11:21.759Z,4.57
2023-05-07T04:13:51.226Z,3.58
2023-05-07T04:16:19.323Z,3.85
2023-05-07T04:18:47.488Z,3.67
2023-05-07T04:21:19.704Z,4.22
2023-05-07T04:23:48.338Z,3.87
2023-05-07T04:26:16.881Z,3.95
2023-05-07T04:28:44.970Z,3.83
2023-05-07T04:31:14.430Z,4.15
2023-05-07T04:33:42.502Z,3.95
2023-05-07T04:36:10.711Z,4.10
2023-05-07T04:38:39.665Z,4.00
2023-05-07T04:41:08.853Z,4.10
2023-05-07T04:43:36.927Z,3.50
2023-05-07T04:46:05.091Z,3.63
2023-05-07T04:48:34.580Z,4.22
2023-05-07T04:51:02.672Z,3.63
2023-05-07T04:53:30.744Z,4.22
2023-05-07T04:55:59.237Z,3.60
2023-05-07T04:58:27.366Z,4.10
2023-05-07T05:00:55.494Z,4.13
2023-05-07T05:03:23.738Z,4.32
2023-05-07T05:05:53.811Z,3.40
2023-05-07T05:08:21.879Z,3.75
2023-05-07T05:10:51.039Z,3.97
2023-05-07T05:13:19.421Z,3.63
2023-05-07T05:15:47.973Z,4.18
2023-05-07T05:18:16.124Z,3.88
2023-05-07T05:20:44.203Z,3.78
2023-05-07T05:23:13.647Z,3.13
2023-05-07T05:25:41.774Z,3.65
2023-05-07T05:28:09.870Z,3.60
2023-05-07T05:30:38.869Z,3.50
2023-05-07T05:33:06.992Z,3.45
2023-05-07T05:35:36.448Z,3.25
2023-05-07T05:38:04.903Z,3.65
2023-05-07T05:40:34.392Z,3.00
2023-05-07T05:43:02.505Z,2.95
2023-05-07T05:45:30.647Z,2.80
2023-05-07T05:47:58.891Z,3.20
2023-05-07T05:50:27.046Z,2.78
2023-05-07T05:52:55.770Z,2.97
2023-05-07T05:55:24.029Z,3.38
2023-05-07T05:57:53.551Z,3.05
2023-05-07T06:00:23.460Z,3.30
2023-05-07T06:02:51.784Z,3.03
2023-05-07T06:05:20.122Z,3.15
2023-05-07T06:07:48.322Z,3.15
2023-05-07T06:10:16.554Z,2.90
2023-05-07T06:12:44.644Z,2.60
2023-05-07T06:15:14.418Z,3.30
2023-05-07T06:17:42.786Z,3.13
2023-05-07T06:20:11.622Z,3.10
2023-05-07T06:22:40.144Z,2.72
2023-05-07T06:25:09.366Z,3.20
2023-05-07T06:27:37.435Z,3.35
2023-05-07T06:30:06.422Z,3.47
2023-05-07T06:32:36.059Z,3.40
2023-05-07T06:35:04.225Z,3.35
2023-05-07T06:37:32.333Z,2.92
2023-05-07T06:40:00.697Z,3.70
2023-05-07T06:42:28.824Z,3.28
2023-05-07T06:44:56.926Z,3.33
2023-05-07T06:47:25.087Z,3.28
2023-05-07T06:49:54.572Z,3.58
2023-05-07T06:52:22.645Z,3.25
2023-05-07T06:54:50.755Z,3.00
2023-05-07T06:57:18.791Z,3.03
2023-05-07T06:59:46.867Z,3.30
2023-05-07T07:02:16.465Z,3.67
2023-05-07T07:04:46.616Z,3.08
2023-05-07T07:07:16.150Z,3.75
2023-05-07T07:09:44.342Z,3.35
2023-05-07T07:12:12.428Z,3.33
2023-05-07T07:14:40.502Z,3.08
2023-05-07T07:17:08.627Z,3.20
2023-05-07T07:19:36.737Z,3.10
2023-05-07T07:22:04.824Z,3.42
2023-05-07T07:24:34.246Z,3.38
2023-05-07T07:27:02.351Z,3.55
2023-05-07T07:29:30.426Z,4.00
2023-05-07T07:31:58.770Z,4.35
2023-05-07T07:34:27.038Z,2.88
2023-05-07T07:36:55.137Z,3.60
2023-05-07T07:39:23.452Z,3.33
2023-05-07T07:41:52.984Z,3.63
2023-05-07T07:44:21.409Z,3.03
2023-05-07T07:46:49.581Z,3.50
2023-05-07T07:49:17.702Z,3.60
2023-05-07T07:51:45.880Z,3.72
2023-05-07T07:54:14.095Z,3.28
2023-05-07T07:56:42.191Z,3.63
2023-05-07T07:59:11.682Z,3.67
2023-05-07T08:01:39.809Z,3.90
2023-05-07T08:04:08.695Z,3.47
2023-05-07T08:06:36.907Z,3.47
2023-05-07T08:09:05.122Z,3.60
2023-05-07T08:11:33.224Z,3.40
2023-05-07T08:14:01.401Z,3.00
2023-05-07T08:16:31.354Z,3.72
2023-05-07T08:18:59.492Z,3.53
2023-05-07T08:21:27.694Z,3.78
2023-05-07T08:23:55.811Z,3.45
2023-05-07T08:26:23.895Z,3.97
2023-05-07T08:28:52.018Z,3.45
2023-05-07T08:31:20.216Z,3.78
2023-05-07T08:33:49.756Z,3.50
2023-05-07T08:36:17.843Z,3.17
2023-05-07T08:38:46.787Z,3.80
2023-05-07T08:41:15.038Z,4.20
2023-05-07T08:43:44.055Z,3.85
2023-05-07T08:46:12.782Z,3.83
2023-05-07T08:48:41.500Z,3.58
2023-05-07T08:51:14.625Z,3.80
2023-05-07T08:56:11.471Z,4.00
2023-05-07T08:58:39.609Z,3.47
2023-05-07T09:01:11.033Z,3.72
2023-05-07T09:03:40.019Z,3.30
2023-05-07T09:06:08.516Z,3.22
2023-05-07T09:08:38.240Z,3.55
2023-05-07T09:11:07.188Z,3.20
2023-05-07T09:13:35.302Z,3.40
2023-05-07T09:16:13.216Z,2.78
2023-05-07T09:18:44.365Z,3.55
2023-05-07T09:21:13.171Z,3.13
2023-05-07T09:23:42.688Z,3.13
2023-05-07T09:26:13.020Z,2.53
2023-05-07T09:28:42.560Z,2.70
2023-05-07T09:31:11.113Z,2.50
2023-05-07T09:33:39.481Z,2.03
2023-05-07T09:36:08.775Z,2.33
2023-05-07T09:38:37.798Z,1.60
2023-05-07T09:41:09.013Z,1.98
2023-05-07T09:43:38.434Z,1.70
2023-05-07T09:46:09.447Z,1.95
2023-05-07T09:48:42.280Z,1.67
2023-05-07T09:51:18.856Z,1.27
2023-05-07T09:53:48.071Z,1.17
2023-05-07T09:56:17.804Z,1.27
2023-05-07T09:58:46.235Z,1.25
2023-05-07T10:01:15.005Z,1.80
2023-05-07T10:03:44.394Z,1.77
2023-05-07T10:06:12.789Z,1.38
2023-05-07T10:08:41.165Z,1.58
2023-05-07T10:11:09.336Z,1.33
2023-05-07T10:13:39.163Z,1.40
2023-05-07T10:16:07.826Z,1.50
2023-05-07T10:18:36.257Z,1.58
2023-05-07T10:21:10.311Z,1.83
2023-05-07T10:23:38.800Z,2.03
2023-05-07T10:26:09.228Z,1.60
2023-05-07T10:28:40.932Z,1.15
2023-05-07T10:31:21.672Z,1.15
2023-05-07T10:33:52.201Z,1.52
2023-05-07T10:36:20.653Z,1.45
2023-05-07T10:38:48.761Z,1.67
2023-05-07T10:41:17.972Z,1.40
2023-05-07T10:43:47.989Z,1.50
2023-05-07T10:46:17.978Z,1.90
2023-05-07T10:49:13.556Z,2.13
2023-05-07T10:51:42.095Z,1.40
2023-05-07T10:54:24.744Z,1.30
2023-05-07T10:56:53.152Z,1.30
2023-05-07T10:59:41.880Z,1.50
2023-05-07T11:02:12.336Z,1.55
2023-05-07T11:04:42.567Z,1.60
2023-05-07T11:07:30.335Z,1.40
2023-05-07T11:10:02.262Z,1.67
2023-05-07T11:12:55.829Z,1.20
2023-05-07T11:15:39.850Z,1.42
2023-05-07T11:18:08.301Z,1.50
2023-05-07T11:20:56.816Z,1.40
2023-05-07T11:24:01.920Z,1.20
2023-05-07T11:26:33.311Z,1.77
2023-05-07T11:29:02.300Z,1.60
2023-05-07T11:31:32.965Z,1.88
2023-05-07T11:34:01.613Z,1.83
2023-05-07T11:36:35.174Z,2.13
2023-05-07T11:39:03.486Z,1.63
2023-05-07T11:41:38.449Z,2.00
2023-05-07T11:44:06.737Z,2.35
2023-05-07T11:46:36.297Z,1.85
2023-05-07T11:49:04.446Z,1.85
2023-05-07T11:51:32.880Z,1.50
2023-05-07T11:54:00.954Z,1.90
2023-05-07T11:56:29.049Z,1.63
2023-05-07T11:58:57.147Z,1.75
2023-05-07T12:01:25.223Z,1.50
2023-05-07T12:03:54.797Z,1.92
2023-05-07T12:06:23.013Z,1.60
2023-05-07T12:08:51.079Z,1.80
2023-05-07T12:11:26.156Z,2.50
2023-05-07T12:13:59.119Z,2.40
2023-05-07T12:16:28.193Z,3.60
2023-05-07T12:18:59.939Z,3.10
2023-05-07T12:21:28.068Z,3.97
2023-05-07T12:23:56.257Z,4.72
2023-05-07T12:26:25.103Z,4.80
2023-05-07T12:28:53.218Z,3.33
2023-05-07T12:31:21.362Z,3.92
2023-05-07T12:33:49.506Z,3.55
2023-05-07T12:36:18.992Z,4.25
2023-05-07T12:38:47.034Z,3.80
2023-05-07T12:41:15.112Z,4.13
2023-05-07T12:43:46.553Z,4.18
2023-05-07T12:46:17.646Z,4.78
2023-05-07T12:48:47.238Z,4.45
2023-05-07T12:51:16.385Z,3.95
2023-05-07T12:53:45.953Z,3.45
2023-05-07T12:56:14.090Z,3.85
2023-05-07T12:58:42.400Z,3.60
2023-05-07T13:01:12.211Z,3.55
2023-05-07T13:03:40.664Z,3.20
2023-05-07T13:06:10.589Z,3.30
2023-05-07T13:08:41.406Z,3.03
2023-05-07T13:11:11.842Z,2.50
2023-05-07T13:13:41.373Z,2.78
2023-05-07T13:16:11.126Z,2.40
2023-05-07T13:18:41.223Z,2.40
2023-05-07T13:21:09.968Z,2.10
2023-05-07T13:23:39.682Z,2.42
2023-05-07T13:26:24.938Z,2.00
2023-05-07T13:28:56.239Z,2.40
2023-05-07T13:31:24.471Z,2.28
2023-05-07T13:33:53.663Z,2.03
2023-05-07T13:36:21.830Z,2.58
2023-05-07T13:38:49.924Z,2.30
2023-05-07T13:41:18.172Z,2.05
2023-05-07T13:43:46.365Z,2.08
2023-05-07T13:46:16.005Z,2.28
2023-05-07T13:48:44.107Z,2.25
2023-05-07T13:51:12.320Z,2.20
2023-05-07T13:53:40.396Z,2.65
2023-05-07T13:56:08.632Z,2.47
2023-05-07T13:58:42.198Z,2.53
2023-05-07T14:01:18.048Z,2.80
2023-05-07T14:03:47.017Z,3.13
2023-05-07T14:06:15.233Z,3.10
2023-05-07T14:08:43.297Z,2.47
2023-05-07T14:11:12.105Z,2.00
2023-05-07T14:13:40.435Z,2.20
2023-05-07T14:16:09.018Z,2.05
2023-05-07T14:18:39.611Z,2.65
2023-05-07T14:21:08.623Z,2.65
2023-05-07T14:23:37.090Z,2.63
2023-05-07T14:26:05.326Z,2.70
2023-05-07T14:28:33.465Z,2.45
2023-05-07T14:31:02.027Z,3.13
2023-05-07T14:33:30.143Z,2.97
2023-05-07T14:35:59.562Z,2.67
2023-05-07T14:38:27.724Z,2.90
2023-05-07T14:40:57.156Z,3.25
2023-05-07T14:43:25.366Z,3.38
2023-05-07T14:45:54.042Z,2.97
2023-05-07T14:48:22.130Z,3.22
2023-05-07T14:50:50.432Z,2.92
2023-05-07T14:53:19.901Z,2.83
2023-05-07T14:55:49.814Z,3.80
2023-05-07T14:58:18.115Z,3.85
2023-05-07T15:00:46.496Z,3.95
2023-05-07T15:03:14.797Z,4.72
2023-05-07T15:05:43.561Z,5.38
2023-05-07T15:08:11.735Z,5.75
2023-05-07T15:10:42.596Z,6.00
2023-05-07T15:13:13.790Z,5.82
2023-05-07T15:15:44.682Z,6.50
2023-05-07T15:18:12.853Z,7.13
2023-05-07T15:20:41.195Z,8.18
2023-05-07T15:23:11.179Z,8.75
2023-05-07T15:25:40.807Z,9.10
2023-05-07T15:28:09.061Z,8.80
2023-05-07T15:30:38.045Z,8.27
2023-05-07T15:33:06.609Z,8.75
2023-05-07T15:35:34.959Z,8.40
2023-05-07T15:38:04.507Z,9.02
2023-05-07T15:40:33.672Z,8.38
2023-05-07T15:43:03.606Z,8.90
2023-05-07T15:45:31.833Z,9.20
2023-05-07T15:48:00.435Z,9.10
2023-05-07T15:50:29.611Z,8.75
2023-05-07T15:53:00.504Z,10.32
2023-05-07T15:55:28.677Z,10.98
2023-05-07T15:57:56.890Z,10.65
2023-05-07T16:00:28.276Z,9.18
2023-05-07T16:02:56.688Z,9.93
2023-05-07T16:05:24.918Z,9.18
2023-05-07T16:07:53.117Z,10.57
2023-05-07T16:10:21.389Z,9.48
2023-05-07T16:12:49.497Z,9.90
2023-05-07T16:15:17.772Z,9.48
2023-05-07T16:17:49.596Z,9.43
2023-05-07T16:20:19.937Z,9.98
2023-05-07T16:22:48.192Z,9.85
2023-05-07T16:25:16.699Z,9.77
2023-05-07T16:27:44.755Z,9.25
2023-05-07T16:30:13.196Z,9.75
2023-05-07T16:32:41.403Z,9.05
2023-05-07T16:35:11.682Z,9.00
2023-05-07T16:37:42.147Z,8.32
2023-05-07T16:40:11.052Z,8.40
2023-05-07T16:42:39.363Z,9.18
2023-05-07T16:45:08.878Z,9.27
2023-05-07T16:47:37.006Z,8.88
2023-05-07T16:50:05.914Z,8.48
2023-05-07T16:52:35.610Z,8.13
2023-05-07T16:55:03.730Z,7.15
2023-05-07T16:57:31.924Z,7.90
2023-05-07T17:00:00.515Z,8.00
2023-05-07T17:02:29.021Z,8.70
2023-05-07T17:04:57.260Z,7.80
2023-05-07T17:07:27.665Z,8.52
2023-05-07T17:09:57.180Z,8.00
2023-05-07T17:12:25.316Z,7.72
2023-05-07T17:14:53.378Z,7.07
2023-05-07T17:17:21.505Z,7.20
2023-05-07T17:19:49.621Z,8.32
2023-05-07T17:22:17.708Z,8.68
2023-05-07T17:24:45.802Z,8.85
2023-05-07T17:27:15.288Z,8.10
2023-05-07T17:29:43.430Z,7.72
2023-05-07T17:32:11.572Z,7.03
2023-05-07T17:34:39.753Z,6.95
2023-05-07T17:37:07.917Z,7.47
2023-05-07T17:39:36.169Z,6.82
2023-05-07T17:42:04.362Z,6.75
2023-05-07T17:44:33.948Z,7.65
2023-05-07T17:47:02.064Z,7.32
2023-05-07T17:49:30.476Z,7.38
2023-05-07T17:51:58.537Z,7.88
2023-05-07T17:54:27.565Z,7.07
2023-05-07T17:56:56.216Z,7.90
2023-05-07T17:59:24.316Z,7.65
2023-05-07T18:01:53.795Z,7.35
2023-05-07T18:04:24.535Z,7.90
2023-05-07T18:06:52.611Z,7.50
2023-05-07T18:09:21.245Z,7.07
2023-05-07T18:11:49.334Z,7.50
2023-05-07T18:14:17.425Z,8.45
2023-05-07T18:16:45.637Z,8.57
2023-05-07T18:19:15.229Z,8.80
2023-05-07T18:21:43.356Z,8.65
2023-05-07T18:24:11.459Z,8.07
2023-05-07T18:26:39.577Z,9.43
2023-05-07T18:29:07.690Z,8.25
2023-05-07T18:31:37.881Z,8.00
2023-05-07T18:34:06.792Z,8.15
2023-05-07T18:36:36.301Z,8.85
2023-05-07T18:39:04.858Z,8.50
2023-05-07T18:41:32.943Z,8.10
2023-05-07T18:44:00.990Z,8.82
2023-05-07T18:46:29.542Z,8.60
2023-05-07T18:48:57.739Z,9.45
2023-05-07T18:51:26.033Z,9.40
2023-05-07T18:53:55.515Z,10.18
2023-05-07T18:56:23.729Z,9.93
2023-05-07T18:58:51.910Z,8.80
2023-05-07T19:01:20.124Z,8.77
2023-05-07T19:03:48.385Z,9.27
2023-05-07T19:06:16.459Z,10.40
2023-05-07T19:08:44.530Z,9.77
2023-05-07T19:11:14.040Z,9.38
2023-05-07T19:13:42.104Z,11.02
2023-05-07T19:16:13.348Z,10.55
2023-05-07T19:18:41.756Z,11.35
2023-05-07T19:21:09.858Z,11.75
2023-05-07T19:23:41.767Z,10.60
2023-05-07T19:26:10.174Z,11.40
2023-05-07T19:28:45.390Z,10.43
2023-05-07T19:31:19.893Z,10.65
2023-05-07T19:33:48.263Z,9.88
2023-05-07T19:36:17.317Z,9.73
2023-05-07T19:38:46.865Z,9.68
2023-05-07T19:41:14.980Z,9.88
2023-05-07T19:43:44.482Z,10.32
2023-05-07T19:46:12.618Z,10.75
2023-05-07T19:48:40.771Z,10.38
2023-05-07T19:51:08.907Z,11.30
2023-05-07T19:53:38.499Z,10.82
2023-05-07T19:56:08.085Z,10.60
2023-05-07T19:58:36.639Z,11.18
2023-05-07T20:01:06.792Z,10.50
2023-05-07T20:03:35.713Z,11.02
2023-05-07T20:06:04.338Z,11.38
2023-05-07T20:08:32.442Z,10.63
2023-05-07T20:11:00.942Z,12.00
2023-05-07T20:13:29.398Z,11.95
2023-05-07T20:16:01.383Z,11.40
2023-05-07T20:18:31.418Z,12.13
2023-05-07T20:20:59.482Z,11.30
2023-05-07T20:23:28.503Z,11.60
2023-05-07T20:25:56.567Z,11.15
2023-05-07T20:28:24.750Z,11.45
2023-05-07T20:30:52.819Z,11.05
2023-05-07T20:33:20.919Z,11.02
2023-05-07T20:35:51.008Z,10.02
2023-05-07T20:38:19.154Z,10.88
2023-05-07T20:40:47.332Z,11.48
2023-05-07T20:43:15.533Z,10.90
2023-05-07T20:45:43.658Z,10.98
2023-05-07T20:48:12.413Z,11.93
2023-05-07T20:50:41.572Z,11.68
2023-05-07T20:53:11.400Z,12.05
2023-05-07T20:55:39.482Z,12.55
2023-05-07T20:58:07.524Z,11.98
2023-05-07T21:00:35.910Z,10.68
2023-05-07T21:03:03.990Z,11.70
2023-05-07T21:05:32.579Z,12.43
2023-05-07T21:08:00.691Z,12.65
2023-05-07T21:10:30.354Z,11.65
2023-05-07T21:12:58.961Z,13.05
2023-05-07T21:15:27.100Z,13.60
2023-05-07T21:17:55.373Z,12.93
2023-05-07T21:20:23.657Z,13.93
2023-05-07T21:22:51.733Z,13.65
2023-05-07T21:25:19.918Z,12.93
2023-05-07T21:27:49.500Z,13.00
2023-05-07T21:30:17.617Z,12.80
2023-05-07T21:32:45.943Z,12.60
2023-05-07T21:35:14.834Z,12.82
2023-05-07T21:37:42.978Z,13.43
2023-05-07T21:40:11.922Z,12.52
2023-05-07T21:42:40.169Z,13.02
2023-05-07T21:45:10.984Z,13.32
2023-05-07T21:47:39.098Z,12.40
2023-05-07T21:50:08.111Z,12.88
2023-05-07T21:52:36.490Z,12.00
2023-05-07T21:55:04.843Z,12.60
2023-05-07T21:57:33.170Z,13.93
2023-05-07T22:00:01.457Z,12.15
2023-05-07T22:02:31.445Z,13.23
2023-05-07T22:04:59.661Z,14.27
2023-05-07T22:07:27.721Z,12.60
2023-05-07T22:09:55.881Z,12.90
2023-05-07T22:12:23.927Z,12.05
2023-05-07T22:14:52.424Z,12.55
2023-05-07T22:17:20.472Z,12.63
2023-05-07T22:19:50.458Z,11.18
2023-05-07T22:22:19.317Z,11.52
2023-05-07T22:24:47.544Z,12.25
2023-05-07T22:27:15.612Z,12.50
2023-05-07T22:29:43.728Z,12.68
2023-05-07T22:32:12.847Z,11.52
2023-05-07T22:34:41.144Z,11.18
2023-05-07T22:37:10.585Z,12.80
2023-05-07T22:39:38.690Z,13.23
2023-05-07T22:42:07.505Z,12.55
2023-05-07T22:44:35.618Z,12.63
2023-05-07T22:47:03.733Z,11.85
2023-05-07T22:49:31.987Z,12.63
2023-05-07T22:52:00.069Z,13.10
2023-05-07T22:54:29.759Z,12.82
2023-05-07T22:56:59.285Z,10.95
2023-05-07T22:59:27.482Z,11.43
2023-05-07T23:01:55.717Z,10.27
2023-05-07T23:04:23.874Z,11.60
2023-05-07T23:06:52.024Z,11.18
2023-05-07T23:09:20.063Z,11.85
2023-05-07T23:11:49.634Z,11.45
2023-05-07T23:14:17.694Z,11.02
2023-05-07T23:16:45.925Z,11.25
2023-05-07T23:19:14.060Z,11.68
2023-05-07T23:21:42.232Z,11.15
2023-05-07T23:24:11.527Z,11.65
2023-05-07T23:26:39.641Z,11.15
2023-05-07T23:29:09.172Z,10.18
2023-05-07T23:31:37.330Z,11.20
2023-05-07T23:34:05.511Z,11.35
2023-05-07T23:36:33.731Z,11.20
2023-05-07T23:39:02.025Z,10.60
2023-05-07T23:41:30.856Z,11.25
2023-05-07T23:43:59.094Z,10.85
2023-05-07T23:46:28.706Z,10.77
2023-05-07T23:48:56.825Z,11.25
2023-05-07T23:51:24.939Z,9.82
2023-05-07T23:53:53.008Z,11.70
2023-05-07T23:56:21.109Z,10.80
2023-05-07T23:58:49.199Z,10.70
